sensor_id;sensor_type;location;lat;lon;timestamp;pressure;altitude;pressure_sealevel;temperature;humidity
47785;BME280;35233;55.686;37.848;2023-03-14T00:01:09;99516.78;;;12.64;37.28
47785;BME280;35233;55.686;37.848;2023-03-14T00:03:35;99516.78;;;12.64;37.38
47785;BME280;35233;55.686;37.848;2023-03-14T00:06:04;99522.94;;;12.64;36.96
47785;BME280;35233;55.686;37.848;2023-03-14T00:08:30;99511.66;;;12.59;37.59
47785;BME280;35233;55.686;37.848;2023-03-14T00:10:55;99503.59;;;12.62;37.69
47785;BME280;35233;55.686;37.848;2023-03-14T00:13:23;99490.56;;;12.56;36.75
47785;BME280;35233;55.686;37.848;2023-03-14T00:15:49;99495.47;;;12.67;37.51
47785;BME280;35233;55.686;37.848;2023-03-14T00:18:14;99485.63;;;12.47;37.17
47785;BME280;35233;55.686;37.848;2023-03-14T00:20:40;99485.91;;;12.63;37.40
47785;BME280;35233;55.686;37.848;2023-03-14T00:23:06;99474.75;;;12.55;36.94
47785;BME280;35233;55.686;37.848;2023-03-14T00:25:31;99473.75;;;12.57;37.54
47785;BME280;35233;55.686;37.848;2023-03-14T00:27:57;99475.34;;;12.61;36.82
47785;BME280;35233;55.686;37.848;2023-03-14T00:30:22;99462.72;;;12.46;37.69
47785;BME280;35233;55.686;37.848;2023-03-14T00:32:48;99444.19;;;12.46;36.97
47785;BME280;35233;55.686;37.848;2023-03-14T00:35:14;99454.28;;;12.58;37.38
47785;BME280;35233;55.686;37.848;2023-03-14T00:37:40;99454.53;;;12.52;37.07
47785;BME280;35233;55.686;37.848;2023-03-14T00:40:06;99432.63;;;12.47;36.72
47785;BME280;35233;55.686;37.848;2023-03-14T00:42:33;99440.53;;;12.49;37.62
47785;BME280;35233;55.686;37.848;2023-03-14T00:44:58;99445.28;;;12.40;37.28
47785;BME280;35233;55.686;37.848;2023-03-14T00:47:24;99446.81;;;12.46;37.37
47785;BME280;35233;55.686;37.848;2023-03-14T00:49:49;99438.06;;;12.44;37.56
47785;BME280;35233;55.686;37.848;2023-03-14T00:52:15;99441.88;;;12.37;37.34
47785;BME280;35233;55.686;37.848;2023-03-14T00:54:40;99432.28;;;12.34;37.01
47785;BME280;35233;55.686;37.848;2023-03-14T00:57:06;99442.63;;;12.40;37.22
47785;BME280;35233;55.686;37.848;2023-03-14T00:59:31;99439.81;;;12.45;37.27
47785;BME280;35233;55.686;37.848;2023-03-14T01:01:57;99444.28;;;12.43;37.04
47785;BME280;35233;55.686;37.848;2023-03-14T01:04:22;99424.25;;;12.36;37.66
47785;BME280;35233;55.686;37.848;2023-03-14T01:06:48;99419.88;;;12.35;37.35
47785;BME280;35233;55.686;37.848;2023-03-14T01:09:13;99412.66;;;12.38;37.33
47785;BME280;35233;55.686;37.848;2023-03-14T01:11:39;99406.75;;;12.32;37.55
47785;BME280;35233;55.686;37.848;2023-03-14T01:14:04;99427.13;;;12.30;37.47
47785;BME280;35233;55.686;37.848;2023-03-14T01:16:33;99416.16;;;12.17;37.72
47785;BME280;35233;55.686;37.848;2023-03-14T01:18:59;99399.06;;;12.26;37.09
47785;BME280;35233;55.686;37.848;2023-03-14T01:21:27;99405.06;;;12.31;36.96
47785;BME280;35233;55.686;37.848;2023-03-14T01:23:56;99413.16;;;12.26;37.31
47785;BME280;35233;55.686;37.848;2023-03-14T01:26:24;99423.03;;;12.22;37.26
47785;BME280;35233;55.686;37.848;2023-03-14T01:28:52;99403.53;;;12.23;36.96
47785;BME280;35233;55.686;37.848;2023-03-14T01:31:18;99405.38;;;12.21;37.66
47785;BME280;35233;55.686;37.848;2023-03-14T01:33:44;99399.31;;;12.19;37.53
47785;BME280;35233;55.686;37.848;2023-03-14T01:36:10;99391.25;;;12.22;37.80
47785;BME280;35233;55.686;37.848;2023-03-14T01:38:37;99372.31;;;12.32;37.14
47785;BME280;35233;55.686;37.848;2023-03-14T01:41:04;99364.75;;;12.22;37.32
47785;BME280;35233;55.686;37.848;2023-03-14T01:43:30;99358.84;;;12.16;37.78
47785;BME280;35233;55.686;37.848;2023-03-14T01:51:07;99355.31;;;12.15;37.61
47785;BME280;35233;55.686;37.848;2023-03-14T01:53:35;99339.66;;;12.09;37.39
47785;BME280;35233;55.686;37.848;2023-03-14T01:56:01;99347.50;;;12.12;37.96
47785;BME280;35233;55.686;37.848;2023-03-14T01:58:30;99324.63;;;12.10;37.67
47785;BME280;35233;55.686;37.848;2023-03-14T02:01:01;99319.03;;;11.95;37.84
47785;BME280;35233;55.686;37.848;2023-03-14T02:03:29;99321.00;;;12.12;37.50
47785;BME280;35233;55.686;37.848;2023-03-14T02:05:59;99314.16;;;12.07;37.48
47785;BME280;35233;55.686;37.848;2023-03-14T02:08:28;99324.16;;;12.00;37.65
47785;BME280;35233;55.686;37.848;2023-03-14T02:10:54;99315.22;;;12.03;37.82
47785;BME280;35233;55.686;37.848;2023-03-14T02:13:21;99317.78;;;12.04;37.92
47785;BME280;35233;55.686;37.848;2023-03-14T02:15:48;99311.59;;;12.05;38.17
47785;BME280;35233;55.686;37.848;2023-03-14T02:18:16;99300.50;;;11.95;38.56
47785;BME280;35233;55.686;37.848;2023-03-14T02:23:15;99305.38;;;12.06;38.15
47785;BME280;35233;55.686;37.848;2023-03-14T02:25:51;99276.91;;;11.89;38.04
47785;BME280;35233;55.686;37.848;2023-03-14T02:28:20;99291.44;;;12.01;38.64
47785;BME280;35233;55.686;37.848;2023-03-14T02:30:46;99279.97;;;12.02;38.45
47785;BME280;35233;55.686;37.848;2023-03-14T02:33:19;99275.69;;;11.98;38.27
47785;BME280;35233;55.686;37.848;2023-03-14T02:35:58;99281.97;;;11.95;38.10
47785;BME280;35233;55.686;37.848;2023-03-14T02:38:40;99281.75;;;12.02;38.53
47785;BME280;35233;55.686;37.848;2023-03-14T02:41:09;99246.91;;;11.90;38.65
47785;BME280;35233;55.686;37.848;2023-03-14T02:43:35;99230.56;;;12.01;38.28
47785;BME280;35233;55.686;37.848;2023-03-14T02:46:01;99216.28;;;12.05;38.54
47785;BME280;35233;55.686;37.848;2023-03-14T02:48:40;99229.16;;;11.92;38.75
47785;BME280;35233;55.686;37.848;2023-03-14T02:51:07;99201.78;;;11.93;38.17
47785;BME280;35233;55.686;37.848;2023-03-14T02:53:35;99219.84;;;12.04;38.06
47785;BME280;35233;55.686;37.848;2023-03-14T02:56:02;99231.63;;;11.97;38.50
47785;BME280;35233;55.686;37.848;2023-03-14T02:58:28;99209.63;;;11.95;38.60
47785;BME280;35233;55.686;37.848;2023-03-14T03:00:54;99199.84;;;11.97;38.73
47785;BME280;35233;55.686;37.848;2023-03-14T03:03:20;99204.22;;;11.98;38.54
47785;BME280;35233;55.686;37.848;2023-03-14T03:05:51;99204.09;;;12.01;38.39
47785;BME280;35233;55.686;37.848;2023-03-14T03:08:18;99200.78;;;11.96;38.71
47785;BME280;35233;55.686;37.848;2023-03-14T03:10:43;99200.97;;;11.91;39.16
47785;BME280;35233;55.686;37.848;2023-03-14T03:13:09;99194.56;;;11.97;38.47
47785;BME280;35233;55.686;37.848;2023-03-14T03:15:34;99203.34;;;11.97;38.56
47785;BME280;35233;55.686;37.848;2023-03-14T03:18:00;99202.63;;;11.94;38.90
47785;BME280;35233;55.686;37.848;2023-03-14T03:20:25;99199.13;;;11.93;38.79
47785;BME280;35233;55.686;37.848;2023-03-14T03:22:51;99183.84;;;12.00;38.91
47785;BME280;35233;55.686;37.848;2023-03-14T03:25:17;99179.75;;;11.93;38.92
47785;BME280;35233;55.686;37.848;2023-03-14T03:27:42;99183.00;;;11.99;39.02
47785;BME280;35233;55.686;37.848;2023-03-14T03:30:08;99182.38;;;11.93;39.28
47785;BME280;35233;55.686;37.848;2023-03-14T03:32:34;99176.16;;;11.94;38.63
47785;BME280;35233;55.686;37.848;2023-03-14T03:34:59;99164.84;;;11.90;39.48
47785;BME280;35233;55.686;37.848;2023-03-14T03:37:25;99168.94;;;11.97;38.96
47785;BME280;35233;55.686;37.848;2023-03-14T03:39:51;99140.28;;;11.87;38.93
47785;BME280;35233;55.686;37.848;2023-03-14T03:42:17;99131.66;;;11.82;38.89
47785;BME280;35233;55.686;37.848;2023-03-14T03:44:43;99140.03;;;11.93;39.33
47785;BME280;35233;55.686;37.848;2023-03-14T03:47:08;99132.31;;;11.87;39.24
47785;BME280;35233;55.686;37.848;2023-03-14T03:49:34;99146.25;;;11.92;38.71
47785;BME280;35233;55.686;37.848;2023-03-14T03:51:59;99132.16;;;11.91;39.29
47785;BME280;35233;55.686;37.848;2023-03-14T03:54:25;99138.03;;;11.98;38.86
47785;BME280;35233;55.686;37.848;2023-03-14T03:56:51;99128.38;;;11.97;39.37
47785;BME280;35233;55.686;37.848;2023-03-14T03:59:17;99127.66;;;11.93;39.50
47785;BME280;35233;55.686;37.848;2023-03-14T04:01:43;99127.72;;;11.92;39.48
47785;BME280;35233;55.686;37.848;2023-03-14T04:04:09;99116.34;;;11.90;39.14
47785;BME280;35233;55.686;37.848;2023-03-14T04:06:34;99108.75;;;11.81;39.67
47785;BME280;35233;55.686;37.848;2023-03-14T04:09:00;99120.56;;;11.94;39.65
47785;BME280;35233;55.686;37.848;2023-03-14T04:11:32;99098.41;;;11.74;39.65
47785;BME280;35233;55.686;37.848;2023-03-14T04:13:58;99115.66;;;11.85;40.02
47785;BME280;35233;55.686;37.848;2023-03-14T04:16:24;99121.44;;;11.94;39.93
47785;BME280;35233;55.686;37.848;2023-03-14T04:18:50;99127.66;;;11.93;39.77
47785;BME280;35233;55.686;37.848;2023-03-14T04:21:17;99110.13;;;11.91;39.87
47785;BME280;35233;55.686;37.848;2023-03-14T04:23:42;99113.44;;;11.96;40.10
47785;BME280;35233;55.686;37.848;2023-03-14T04:26:08;99105.69;;;11.91;39.60
47785;BME280;35233;55.686;37.848;2023-03-14T04:28:34;99094.91;;;11.96;40.15
47785;BME280;35233;55.686;37.848;2023-03-14T04:31:11;99096.75;;;11.94;40.29
47785;BME280;35233;55.686;37.848;2023-03-14T04:33:37;99078.72;;;11.82;40.01
47785;BME280;35233;55.686;37.848;2023-03-14T04:36:04;99092.25;;;11.96;40.09
47785;BME280;35233;55.686;37.848;2023-03-14T04:38:30;99087.81;;;11.96;39.85
47785;BME280;35233;55.686;37.848;2023-03-14T04:40:55;99084.09;;;12.00;40.49
47785;BME280;35233;55.686;37.848;2023-03-14T04:43:21;99081.41;;;12.02;40.55
47785;BME280;35233;55.686;37.848;2023-03-14T04:45:46;99083.13;;;12.03;40.08
47785;BME280;35233;55.686;37.848;2023-03-14T04:48:12;99081.69;;;11.96;40.29
47785;BME280;35233;55.686;37.848;2023-03-14T04:50:38;99063.28;;;11.93;40.70
47785;BME280;35233;55.686;37.848;2023-03-14T04:53:03;99070.81;;;12.02;40.92
47785;BME280;35233;55.686;37.848;2023-03-14T04:55:29;99062.06;;;12.00;41.08
47785;BME280;35233;55.686;37.848;2023-03-14T04:57:54;99040.38;;;11.92;40.35
47785;BME280;35233;55.686;37.848;2023-03-14T05:00:20;99059.66;;;12.35;40.45
47785;BME280;35233;55.686;37.848;2023-03-14T05:02:45;99056.84;;;12.19;40.24
47785;BME280;35233;55.686;37.848;2023-03-14T05:05:11;99062.19;;;12.17;40.78
47785;BME280;35233;55.686;37.848;2023-03-14T05:07:36;99053.59;;;12.12;40.69
47785;BME280;35233;55.686;37.848;2023-03-14T05:10:02;99046.50;;;12.13;41.33
47785;BME280;35233;55.686;37.848;2023-03-14T05:12:28;99055.81;;;12.21;40.81
47785;BME280;35233;55.686;37.848;2023-03-14T05:14:53;99047.03;;;12.21;40.87
47785;BME280;35233;55.686;37.848;2023-03-14T05:17:19;99032.88;;;12.22;40.50
47785;BME280;35233;55.686;37.848;2023-03-14T05:19:45;99031.78;;;12.26;41.02
47785;BME280;35233;55.686;37.848;2023-03-14T05:22:11;99027.50;;;12.23;40.91
47785;BME280;35233;55.686;37.848;2023-03-14T05:24:36;99011.41;;;12.28;40.86
47785;BME280;35233;55.686;37.848;2023-03-14T05:27:03;99017.47;;;12.30;40.94
47785;BME280;35233;55.686;37.848;2023-03-14T05:29:29;99008.66;;;12.30;40.79
47785;BME280;35233;55.686;37.848;2023-03-14T05:31:54;98997.31;;;12.28;40.91
47785;BME280;35233;55.686;37.848;2023-03-14T05:34:20;99018.22;;;12.34;41.06
47785;BME280;35233;55.686;37.848;2023-03-14T05:36:45;99021.56;;;12.37;40.62
47785;BME280;35233;55.686;37.848;2023-03-14T05:39:10;99014.56;;;12.36;40.70
47785;BME280;35233;55.686;37.848;2023-03-14T05:41:36;99027.06;;;12.33;40.93
47785;BME280;35233;55.686;37.848;2023-03-14T05:44:02;99019.94;;;12.35;40.87
47785;BME280;35233;55.686;37.848;2023-03-14T05:46:27;99023.28;;;12.38;40.93
47785;BME280;35233;55.686;37.848;2023-03-14T05:48:53;99042.53;;;12.42;40.93
47785;BME280;35233;55.686;37.848;2023-03-14T05:51:18;99029.38;;;12.40;40.17
47785;BME280;35233;55.686;37.848;2023-03-14T05:53:44;99019.78;;;12.38;40.73
47785;BME280;35233;55.686;37.848;2023-03-14T05:56:09;99043.28;;;12.45;41.03
47785;BME280;35233;55.686;37.848;2023-03-14T05:58:35;99027.53;;;12.42;40.76
47785;BME280;35233;55.686;37.848;2023-03-14T06:01:04;99033.97;;;12.56;40.54
47785;BME280;35233;55.686;37.848;2023-03-14T06:03:31;99026.09;;;12.54;40.62
47785;BME280;35233;55.686;37.848;2023-03-14T06:05:56;99040.56;;;12.66;40.85
47785;BME280;35233;55.686;37.848;2023-03-14T06:08:22;99035.41;;;12.63;40.82
47785;BME280;35233;55.686;37.848;2023-03-14T06:10:48;99038.91;;;12.63;40.34
47785;BME280;35233;55.686;37.848;2023-03-14T06:13:13;99042.56;;;12.61;40.17
47785;BME280;35233;55.686;37.848;2023-03-14T06:15:41;99036.56;;;12.57;40.65
47785;BME280;35233;55.686;37.848;2023-03-14T06:18:06;99030.19;;;12.61;40.18
47785;BME280;35233;55.686;37.848;2023-03-14T06:20:32;99027.47;;;12.63;40.92
47785;BME280;35233;55.686;37.848;2023-03-14T06:22:58;99032.69;;;12.64;40.31
47785;BME280;35233;55.686;37.848;2023-03-14T06:25:24;99022.03;;;12.66;40.81
47785;BME280;35233;55.686;37.848;2023-03-14T06:27:49;99033.34;;;12.69;40.13
47785;BME280;35233;55.686;37.848;2023-03-14T06:30:15;99020.94;;;12.70;40.64
47785;BME280;35233;55.686;37.848;2023-03-14T06:32:41;99003.47;;;12.66;40.64
47785;BME280;35233;55.686;37.848;2023-03-14T06:35:07;99019.13;;;12.71;41.02
47785;BME280;35233;55.686;37.848;2023-03-14T06:37:33;99007.03;;;12.65;40.36
47785;BME280;35233;55.686;37.848;2023-03-14T06:39:58;99014.56;;;12.74;40.91
47785;BME280;35233;55.686;37.848;2023-03-14T06:42:24;98984.84;;;12.67;40.62
47785;BME280;35233;55.686;37.848;2023-03-14T06:44:49;98995.00;;;12.77;41.08
47785;BME280;35233;55.686;37.848;2023-03-14T06:47:15;98992.34;;;12.77;40.35
47785;BME280;35233;55.686;37.848;2023-03-14T06:49:40;98994.13;;;12.76;41.13
47785;BME280;35233;55.686;37.848;2023-03-14T06:52:06;98997.50;;;12.80;40.65
47785;BME280;35233;55.686;37.848;2023-03-14T06:54:31;98989.13;;;12.89;40.83
47785;BME280;35233;55.686;37.848;2023-03-14T06:56:57;98983.03;;;12.87;40.93
47785;BME280;35233;55.686;37.848;2023-03-14T06:59:22;98965.56;;;12.83;40.53
47785;BME280;35233;55.686;37.848;2023-03-14T07:01:48;98967.03;;;12.88;40.60
47785;BME280;35233;55.686;37.848;2023-03-14T07:04:16;98980.94;;;12.94;41.04
47785;BME280;35233;55.686;37.848;2023-03-14T07:06:42;98977.06;;;13.01;40.18
47785;BME280;35233;55.686;37.848;2023-03-14T07:09:10;98983.22;;;13.01;40.88
47785;BME280;35233;55.686;37.848;2023-03-14T07:11:36;98976.22;;;13.00;41.10
47785;BME280;35233;55.686;37.848;2023-03-14T07:14:02;98976.50;;;13.11;40.12
47785;BME280;35233;55.686;37.848;2023-03-14T07:16:28;98972.78;;;13.16;40.85
47785;BME280;35233;55.686;37.848;2023-03-14T07:18:56;98964.19;;;13.10;40.64
47785;BME280;35233;55.686;37.848;2023-03-14T07:21:22;98990.25;;;13.20;40.13
47785;BME280;35233;55.686;37.848;2023-03-14T07:23:48;98976.94;;;13.21;40.84
47785;BME280;35233;55.686;37.848;2023-03-14T07:26:13;98981.59;;;13.16;40.36
47785;BME280;35233;55.686;37.848;2023-03-14T07:28:39;98976.56;;;13.29;39.99
47785;BME280;35233;55.686;37.848;2023-03-14T07:31:04;99007.69;;;13.25;40.62
47785;BME280;35233;55.686;37.848;2023-03-14T07:33:30;99000.59;;;13.26;40.54
47785;BME280;35233;55.686;37.848;2023-03-14T07:35:55;98994.50;;;13.24;40.69
47785;BME280;35233;55.686;37.848;2023-03-14T07:38:21;99004.22;;;13.23;40.71
47785;BME280;35233;55.686;37.848;2023-03-14T07:40:47;99011.84;;;13.31;40.87
47785;BME280;35233;55.686;37.848;2023-03-14T07:43:12;99007.25;;;13.34;40.78
47785;BME280;35233;55.686;37.848;2023-03-14T07:45:38;99002.66;;;13.38;40.39
47785;BME280;35233;55.686;37.848;2023-03-14T07:48:03;98987.19;;;13.29;40.93
47785;BME280;35233;55.686;37.848;2023-03-14T07:50:29;98981.66;;;13.33;40.59
47785;BME280;35233;55.686;37.848;2023-03-14T07:52:54;98994.59;;;13.40;40.23
47785;BME280;35233;55.686;37.848;2023-03-14T07:55:20;99000.84;;;13.39;40.17
47785;BME280;35233;55.686;37.848;2023-03-14T07:57:46;99005.75;;;13.46;40.57
47785;BME280;35233;55.686;37.848;2023-03-14T08:00:12;99003.97;;;13.29;41.25
47785;BME280;35233;55.686;37.848;2023-03-14T08:02:40;98989.94;;;13.27;40.53
47785;BME280;35233;55.686;37.848;2023-03-14T08:05:06;98998.59;;;13.31;41.16
47785;BME280;35233;55.686;37.848;2023-03-14T08:07:31;98994.81;;;13.35;41.15
47785;BME280;35233;55.686;37.848;2023-03-14T08:09:57;98982.03;;;13.26;41.38
47785;BME280;35233;55.686;37.848;2023-03-14T08:12:22;98996.16;;;13.44;40.40
47785;BME280;35233;55.686;37.848;2023-03-14T08:14:48;98989.94;;;13.45;40.34
47785;BME280;35233;55.686;37.848;2023-03-14T08:17:13;99012.22;;;13.41;41.06
47785;BME280;35233;55.686;37.848;2023-03-14T08:19:41;99012.06;;;13.44;40.74
47785;BME280;35233;55.686;37.848;2023-03-14T08:22:06;99020.13;;;13.42;41.34
47785;BME280;35233;55.686;37.848;2023-03-14T08:24:32;99007.81;;;13.41;41.08
47785;BME280;35233;55.686;37.848;2023-03-14T08:26:57;99006.66;;;13.47;40.63
47785;BME280;35233;55.686;37.848;2023-03-14T08:29:23;99014.72;;;13.44;40.41
47785;BME280;35233;55.686;37.848;2023-03-14T08:31:48;99021.69;;;13.46;40.71
47785;BME280;35233;55.686;37.848;2023-03-14T08:34:15;99028.31;;;13.55;40.97
47785;BME280;35233;55.686;37.848;2023-03-14T08:36:41;99019.88;;;13.64;40.79
47785;BME280;35233;55.686;37.848;2023-03-14T08:39:06;99003.59;;;13.72;40.39
47785;BME280;35233;55.686;37.848;2023-03-14T08:41:33;99016.16;;;13.68;40.40
47785;BME280;35233;55.686;37.848;2023-03-14T08:44:05;99012.03;;;13.63;40.70
47785;BME280;35233;55.686;37.848;2023-03-14T08:46:31;99020.13;;;13.77;40.80
47785;BME280;35233;55.686;37.848;2023-03-14T08:48:57;99022.69;;;13.78;40.54
47785;BME280;35233;55.686;37.848;2023-03-14T08:51:22;99020.28;;;13.74;40.55
47785;BME280;35233;55.686;37.848;2023-03-14T08:53:48;99020.34;;;13.72;40.73
47785;BME280;35233;55.686;37.848;2023-03-14T08:56:13;99013.41;;;13.70;40.49
47785;BME280;35233;55.686;37.848;2023-03-14T08:58:38;99010.31;;;13.62;40.75
47785;BME280;35233;55.686;37.848;2023-03-14T09:01:09;99010.69;;;13.71;40.48
47785;BME280;35233;55.686;37.848;2023-03-14T09:03:35;99021.78;;;13.79;39.98
47785;BME280;35233;55.686;37.848;2023-03-14T09:06:09;99006.38;;;13.86;40.81
47785;BME280;35233;55.686;37.848;2023-03-14T09:08:35;99010.75;;;13.87;40.38
47785;BME280;35233;55.686;37.848;2023-03-14T09:11:01;99007.94;;;13.90;40.30
47785;BME280;35233;55.686;37.848;2023-03-14T09:13:27;99004.91;;;13.80;40.55
47785;BME280;35233;55.686;37.848;2023-03-14T09:15:53;99001.28;;;13.99;40.29
47785;BME280;35233;55.686;37.848;2023-03-14T09:18:19;98998.72;;;13.97;40.58
47785;BME280;35233;55.686;37.848;2023-03-14T09:20:45;98990.06;;;13.94;40.29
47785;BME280;35233;55.686;37.848;2023-03-14T09:23:10;99005.84;;;13.97;40.25
47785;BME280;35233;55.686;37.848;2023-03-14T09:25:36;98986.31;;;13.80;40.29
47785;BME280;35233;55.686;37.848;2023-03-14T09:28:02;98995.53;;;13.91;40.46
47785;BME280;35233;55.686;37.848;2023-03-14T09:30:27;99001.47;;;13.78;40.92
47785;BME280;35233;55.686;37.848;2023-03-14T09:32:52;99017.31;;;13.97;40.65
47785;BME280;35233;55.686;37.848;2023-03-14T09:35:18;99014.28;;;13.88;41.30
47785;BME280;35233;55.686;37.848;2023-03-14T09:37:43;99005.34;;;14.06;40.27
47785;BME280;35233;55.686;37.848;2023-03-14T09:40:13;99007.88;;;13.92;41.18
47785;BME280;35233;55.686;37.848;2023-03-14T09:42:40;99009.50;;;13.94;40.70
47785;BME280;35233;55.686;37.848;2023-03-14T09:45:23;99004.50;;;13.88;41.22
47785;BME280;35233;55.686;37.848;2023-03-14T09:47:50;99000.44;;;13.98;40.98
47785;BME280;35233;55.686;37.848;2023-03-14T09:50:16;99011.66;;;14.03;40.78
47785;BME280;35233;55.686;37.848;2023-03-14T09:53:03;99008.88;;;13.89;40.88
47785;BME280;35233;55.686;37.848;2023-03-14T09:55:30;99001.66;;;14.09;40.90
47785;BME280;35233;55.686;37.848;2023-03-14T09:58:00;99004.66;;;14.02;40.71
47785;BME280;35233;55.686;37.848;2023-03-14T10:00:29;99003.03;;;14.16;40.59
47785;BME280;35233;55.686;37.848;2023-03-14T10:02:56;98994.03;;;14.02;41.01
47785;BME280;35233;55.686;37.848;2023-03-14T10:05:24;98995.56;;;14.07;40.61
47785;BME280;35233;55.686;37.848;2023-03-14T10:07:50;98992.88;;;13.91;41.13
47785;BME280;35233;55.686;37.848;2023-03-14T10:10:24;98988.50;;;13.90;41.25
47785;BME280;35233;55.686;37.848;2023-03-14T10:12:57;99001.03;;;14.03;40.55
47785;BME280;35233;55.686;37.848;2023-03-14T10:15:33;98992.06;;;14.06;41.20
47785;BME280;35233;55.686;37.848;2023-03-14T10:18:01;99003.63;;;14.05;41.53
47785;BME280;35233;55.686;37.848;2023-03-14T10:25:35;98990.19;;;14.08;40.83
47785;BME280;35233;55.686;37.848;2023-03-14T10:28:03;98994.31;;;14.14;41.38
47785;BME280;35233;55.686;37.848;2023-03-14T10:30:34;98980.25;;;14.12;40.77
47785;BME280;35233;55.686;37.848;2023-03-14T10:35:43;98983.38;;;14.20;40.97
47785;BME280;35233;55.686;37.848;2023-03-14T10:38:14;98970.66;;;14.25;40.61
47785;BME280;35233;55.686;37.848;2023-03-14T10:40:46;98963.03;;;14.19;41.02
47785;BME280;35233;55.686;37.848;2023-03-14T10:43:17;98922.22;;;13.88;41.48
47785;BME280;35233;55.686;37.848;2023-03-14T10:45:52;98975.00;;;14.10;41.63
47785;BME280;35233;55.686;37.848;2023-03-14T10:48:30;98980.25;;;14.12;41.23
47785;BME280;35233;55.686;37.848;2023-03-14T10:51:11;98986.53;;;14.26;41.01
47785;BME280;35233;55.686;37.848;2023-03-14T10:53:55;98986.03;;;14.20;41.20
47785;BME280;35233;55.686;37.848;2023-03-14T10:56:24;98976.31;;;14.19;41.34
47785;BME280;35233;55.686;37.848;2023-03-14T10:58:52;98967.16;;;14.24;41.11
47785;BME280;35233;55.686;37.848;2023-03-14T11:15:15;98951.38;;;14.21;41.87
47785;BME280;35233;55.686;37.848;2023-03-14T11:23:32;98964.88;;;14.34;41.83
47785;BME280;35233;55.686;37.848;2023-03-14T11:28:48;98948.84;;;14.36;41.33
47785;BME280;35233;55.686;37.848;2023-03-14T11:31:20;98958.78;;;14.32;41.23
47785;BME280;35233;55.686;37.848;2023-03-14T11:34:11;98952.63;;;14.32;41.36
47785;BME280;35233;55.686;37.848;2023-03-14T11:39:15;98971.63;;;14.24;41.69
47785;BME280;35233;55.686;37.848;2023-03-14T11:41:44;98960.53;;;14.16;41.87
47785;BME280;35233;55.686;37.848;2023-03-14T11:44:32;98960.81;;;14.11;42.14
47785;BME280;35233;55.686;37.848;2023-03-14T11:47:04;98962.69;;;14.25;41.86
47785;BME280;35233;55.686;37.848;2023-03-14T11:49:47;98958.50;;;14.21;41.76
47785;BME280;35233;55.686;37.848;2023-03-14T11:55:37;98964.50;;;14.09;42.43
47785;BME280;35233;55.686;37.848;2023-03-14T11:58:26;98974.16;;;14.10;42.35
47785;BME280;35233;55.686;37.848;2023-03-14T12:00:54;98968.84;;;14.10;42.37
47785;BME280;35233;55.686;37.848;2023-03-14T12:14:20;98996.09;;;14.13;42.64
47785;BME280;35233;55.686;37.848;2023-03-14T12:16:47;98994.47;;;14.11;42.77
47785;BME280;35233;55.686;37.848;2023-03-14T12:21:58;99000.81;;;14.08;42.62
47785;BME280;35233;55.686;37.848;2023-03-14T12:24:28;99005.50;;;14.03;43.12
47785;BME280;35233;55.686;37.848;2023-03-14T12:26:59;98999.41;;;14.01;42.76
47785;BME280;35233;55.686;37.848;2023-03-14T12:29:25;98994.19;;;13.99;42.84
47785;BME280;35233;55.686;37.848;2023-03-14T12:34:33;98990.81;;;13.96;43.32
47785;BME280;35233;55.686;37.848;2023-03-14T12:37:04;99006.59;;;13.99;43.30
47785;BME280;35233;55.686;37.848;2023-03-14T12:43:01;98999.91;;;13.92;42.50
47785;BME280;35233;55.686;37.848;2023-03-14T12:45:33;99009.81;;;14.06;42.79
47785;BME280;35233;55.686;37.848;2023-03-14T12:48:09;98996.91;;;13.98;43.22
47785;BME280;35233;55.686;37.848;2023-03-14T12:53:16;99021.94;;;13.94;43.11
47785;BME280;35233;55.686;37.848;2023-03-14T12:56:15;99012.78;;;13.99;43.08
47785;BME280;35233;55.686;37.848;2023-03-14T13:01:29;99013.88;;;13.95;43.28
47785;BME280;35233;55.686;37.848;2023-03-14T13:04:04;99016.81;;;14.07;43.61
47785;BME280;35233;55.686;37.848;2023-03-14T13:12:10;99016.97;;;14.03;43.08
47785;BME280;35233;55.686;37.848;2023-03-14T13:14:41;99007.91;;;14.08;43.04
47785;BME280;35233;55.686;37.848;2023-03-14T13:17:18;99017.94;;;14.02;43.22
47785;BME280;35233;55.686;37.848;2023-03-14T13:19:51;99018.09;;;13.99;43.93
47785;BME280;35233;55.686;37.848;2023-03-14T13:22:32;99011.19;;;14.13;43.12
47785;BME280;35233;55.686;37.848;2023-03-14T13:25:03;99004.66;;;14.02;43.46
47785;BME280;35233;55.686;37.848;2023-03-14T13:27:30;98990.25;;;14.07;43.03
47785;BME280;35233;55.686;37.848;2023-03-14T13:29:57;99003.16;;;14.14;43.45
47785;BME280;35233;55.686;37.848;2023-03-14T13:32:27;99006.03;;;14.10;43.44
47785;BME280;35233;55.686;37.848;2023-03-14T13:34:57;98993.53;;;14.12;42.77
47785;BME280;35233;55.686;37.848;2023-03-14T13:37:25;98989.41;;;14.06;42.76
47785;BME280;35233;55.686;37.848;2023-03-14T13:39:56;98987.78;;;14.19;43.23
47785;BME280;35233;55.686;37.848;2023-03-14T13:42:26;98993.56;;;14.27;42.65
47785;BME280;35233;55.686;37.848;2023-03-14T13:44:53;99000.00;;;14.23;42.75
47785;BME280;35233;55.686;37.848;2023-03-14T13:47:23;98994.28;;;14.31;42.58
47785;BME280;35233;55.686;37.848;2023-03-14T13:49:50;98987.41;;;14.27;42.67
47785;BME280;35233;55.686;37.848;2023-03-14T13:52:31;99006.31;;;14.21;43.16
47785;BME280;35233;55.686;37.848;2023-03-14T13:54:58;99006.00;;;14.27;42.87
47785;BME280;35233;55.686;37.848;2023-03-14T13:57:25;98992.19;;;14.20;42.62
47785;BME280;35233;55.686;37.848;2023-03-14T14:00:02;98991.84;;;14.26;43.12
47785;BME280;35233;55.686;37.848;2023-03-14T14:02:32;99001.13;;;14.35;42.47
47785;BME280;35233;55.686;37.848;2023-03-14T14:04:59;98990.50;;;14.35;42.12
47785;BME280;35233;55.686;37.848;2023-03-14T14:07:25;99005.41;;;14.38;42.69